createdAt,value
2018-10-17T00:00:11.300Z,5.37
2018-10-17T00:02:38.897Z,4.43
2018-10-17T00:05:06.525Z,4.47
2018-10-17T00:07:34.085Z,4.47
2018-10-17T00:10:01.659Z,4.87
2018-10-17T00:12:29.185Z,4.70
2018-10-17T00:14:56.735Z,3.50
2018-10-17T00:17:24.317Z,4.23
2018-10-17T00:19:51.829Z,3.30
2018-10-17T00:22:19.378Z,4.30
2018-10-17T00:24:46.901Z,4.13
2018-10-17T00:27:14.527Z,4.30
2018-10-17T00:29:42.054Z,4.30
2018-10-17T00:32:09.658Z,6.67
2018-10-17T00:34:37.278Z,4.93
2018-10-17T00:37:04.881Z,5.77
2018-10-17T00:39:32.462Z,4.23
2018-10-17T00:42:00.126Z,4.20
2018-10-17T00:44:27.837Z,3.73
2018-10-17T00:46:55.388Z,4.13
2018-10-17T00:49:22.979Z,4.00
2018-10-17T00:51:50.610Z,5.57
2018-10-17T00:54:18.238Z,5.67
2018-10-17T00:56:45.773Z,5.60
2018-10-17T00:59:14.532Z,4.30
2018-10-17T01:01:42.111Z,4.50
2018-10-17T01:04:09.749Z,4.90
2018-10-17T01:06:37.833Z,4.47
2018-10-17T01:09:10.113Z,4.70
2018-10-17T01:11:38.302Z,4.23
2018-10-17T01:14:06.457Z,4.33
2018-10-17T01:16:34.113Z,4.30
2018-10-17T01:19:02.228Z,4.80
2018-10-17T01:21:29.858Z,4.83
2018-10-17T01:23:57.414Z,4.60
2018-10-17T01:26:25.058Z,4.47
2018-10-17T01:28:52.805Z,4.70
2018-10-17T01:31:20.525Z,5.17
2018-10-17T01:33:48.050Z,4.30
2018-10-17T01:36:15.779Z,4.87
2018-10-17T01:38:43.430Z,5.27
2018-10-17T01:41:11.174Z,4.80
2018-10-17T01:43:38.616Z,4.97
2018-10-17T01:46:06.240Z,5.57
2018-10-17T01:48:33.767Z,5.10
2018-10-17T01:51:01.289Z,5.10
2018-10-17T01:53:29.102Z,4.37
2018-10-17T01:55:56.922Z,4.30
2018-10-17T01:58:24.547Z,6.30
2018-10-17T02:00:52.219Z,6.20
2018-10-17T02:03:19.750Z,4.30
2018-10-17T02:05:47.404Z,4.57
2018-10-17T02:08:15.030Z,4.50
2018-10-17T02:10:42.627Z,4.80
2018-10-17T02:13:10.293Z,4.17
2018-10-17T02:15:37.765Z,5.47
2018-10-17T02:18:05.299Z,4.33
2018-10-17T02:20:32.921Z,4.87
2018-10-17T02:23:00.679Z,6.40
2018-10-17T02:25:28.222Z,4.90
2018-10-17T02:27:55.838Z,5.10
2018-10-17T02:30:23.515Z,5.20
2018-10-17T02:32:51.127Z,4.27
2018-10-17T02:35:18.952Z,5.87
2018-10-17T02:37:46.689Z,5.43
2018-10-17T02:40:14.550Z,4.50
2018-10-17T02:42:42.196Z,4.80
2018-10-17T02:45:11.126Z,4.87
2018-10-17T02:47:38.655Z,4.77
2018-10-17T02:50:07.537Z,5.70
2018-10-17T02:52:35.911Z,4.63
2018-10-17T02:55:03.636Z,5.40
2018-10-17T02:57:31.121Z,5.50
2018-10-17T02:59:58.933Z,4.67
2018-10-17T03:02:26.458Z,5.10
2018-10-17T03:04:53.997Z,5.10
2018-10-17T03:07:21.631Z,4.87
2018-10-17T03:09:49.125Z,4.97
2018-10-17T03:12:16.647Z,5.00
2018-10-17T03:14:44.322Z,5.00
2018-10-17T03:17:11.955Z,4.97
2018-10-17T03:19:39.440Z,5.60
2018-10-17T03:22:07.064Z,6.80
2018-10-17T03:24:34.762Z,5.70
2018-10-17T03:27:02.286Z,6.03
2018-10-17T03:29:29.886Z,5.90
2018-10-17T03:31:57.517Z,4.83
2018-10-17T03:34:25.210Z,4.20
2018-10-17T03:36:52.774Z,4.47
2018-10-17T03:39:20.363Z,5.07
2018-10-17T03:41:47.915Z,4.97
2018-10-17T03:44:15.454Z,5.73
2018-10-17T03:46:43.031Z,5.63
2018-10-17T03:49:10.691Z,6.77
2018-10-17T03:51:38.197Z,4.37
2018-10-17T03:54:05.730Z,4.67
2018-10-17T03:56:33.374Z,5.07
2018-10-17T03:59:01.052Z,4.43
2018-10-17T04:01:28.663Z,4.77
2018-10-17T04:03:56.579Z,5.73
2018-10-17T04:06:24.135Z,5.93
2018-10-17T04:08:51.828Z,5.47
2018-10-17T04:11:19.471Z,6.33
2018-10-17T04:13:47.222Z,5.93
2018-10-17T04:16:14.778Z,5.63
2018-10-17T04:18:42.290Z,6.20
2018-10-17T04:21:09.810Z,5.30
2018-10-17T04:23:37.329Z,7.40
2018-10-17T04:26:04.853Z,7.00
2018-10-17T04:28:32.508Z,5.80
2018-10-17T04:31:00.131Z,5.20
2018-10-17T04:33:27.627Z,5.23
2018-10-17T04:35:55.204Z,5.60
2018-10-17T04:38:22.784Z,6.63
2018-10-17T04:40:50.414Z,6.07
2018-10-17T04:43:18.035Z,5.73
2018-10-17T04:45:45.625Z,5.33
2018-10-17T04:48:13.301Z,5.73
2018-10-17T04:50:40.825Z,6.27
2018-10-17T04:53:08.542Z,5.47
2018-10-17T04:55:36.082Z,5.73
2018-10-17T04:58:03.683Z,5.00
2018-10-17T05:00:31.307Z,5.23
2018-10-17T05:02:58.926Z,5.70
2018-10-17T05:05:26.446Z,8.23
2018-10-17T05:07:54.068Z,8.17
2018-10-17T05:10:21.597Z,6.40
2018-10-17T05:12:49.134Z,5.10
2018-10-17T05:15:16.727Z,5.93
2018-10-17T05:17:44.211Z,6.23
2018-10-17T05:20:11.774Z,5.97
2018-10-17T05:22:39.359Z,5.87
2018-10-17T05:25:07.401Z,7.37
2018-10-17T05:27:34.906Z,6.53
2018-10-17T05:30:02.492Z,5.97
2018-10-17T05:32:30.021Z,6.30
2018-10-17T05:34:57.662Z,5.60
2018-10-17T05:37:25.288Z,5.87
2018-10-17T05:39:52.809Z,6.57
2018-10-17T05:42:20.363Z,5.73
2018-10-17T05:44:47.886Z,6.23
2018-10-17T05:47:15.550Z,5.23
2018-10-17T05:49:43.018Z,9.73
2018-10-17T05:52:10.601Z,6.80
2018-10-17T05:54:38.171Z,5.93
2018-10-17T05:57:05.804Z,6.30
2018-10-17T05:59:33.315Z,5.97
2018-10-17T06:02:03.605Z,6.33
2018-10-17T06:04:31.194Z,10.03
2018-10-17T06:06:58.843Z,5.20
2018-10-17T06:09:26.463Z,5.50
2018-10-17T06:11:53.997Z,8.27
2018-10-17T06:14:21.619Z,5.83
2018-10-17T06:16:49.185Z,6.53
2018-10-17T06:19:16.751Z,6.80
2018-10-17T06:21:44.241Z,8.40
2018-10-17T06:24:11.781Z,6.20
2018-10-17T06:26:39.346Z,5.47
2018-10-17T06:29:06.962Z,7.63
2018-10-17T06:31:34.558Z,5.60
2018-10-17T06:34:02.130Z,6.07
2018-10-17T06:36:29.702Z,6.33
2018-10-17T06:38:57.235Z,6.07
2018-10-17T06:41:24.787Z,5.80
2018-10-17T06:43:52.802Z,8.60
2018-10-17T06:46:20.305Z,7.17
2018-10-17T06:48:47.818Z,5.80
2018-10-17T06:51:15.412Z,5.80
2018-10-17T06:53:43.046Z,6.57
2018-10-17T06:56:10.548Z,5.70
2018-10-17T06:58:38.055Z,7.53
2018-10-17T07:01:05.707Z,8.80
2018-10-17T07:03:33.254Z,10.20
2018-10-17T07:06:00.887Z,10.53
2018-10-17T07:08:28.452Z,10.23
2018-10-17T07:10:56.129Z,7.00
2018-10-17T07:13:23.733Z,11.03
2018-10-17T07:15:51.351Z,13.48
2018-10-17T07:18:18.858Z,9.10
2018-10-17T07:20:46.637Z,7.60
2018-10-17T07:23:14.234Z,7.80
2018-10-17T07:25:41.719Z,7.70
2018-10-17T07:28:09.260Z,6.40
2018-10-17T07:30:36.819Z,6.73
2018-10-17T07:33:04.427Z,6.30
2018-10-17T07:35:31.947Z,6.37
2018-10-17T07:37:59.482Z,6.30
2018-10-17T07:40:27.023Z,9.18
2018-10-17T07:42:54.557Z,7.77
2018-10-17T07:45:22.085Z,11.57
2018-10-17T07:47:49.711Z,7.80
2018-10-17T07:50:17.231Z,7.40
2018-10-17T07:52:44.761Z,9.93
2018-10-17T07:55:12.382Z,9.30
2018-10-17T07:57:40.247Z,10.87
2018-10-17T08:00:10.940Z,8.70
2018-10-17T08:02:38.900Z,10.72
2018-10-17T08:05:06.473Z,10.20
2018-10-17T08:07:34.131Z,8.13
2018-10-17T08:10:01.846Z,7.97
2018-10-17T08:12:29.474Z,6.80
2018-10-17T08:14:57.106Z,7.47
2018-10-17T08:17:24.737Z,8.07
2018-10-17T08:19:52.382Z,9.10
2018-10-17T08:22:19.895Z,10.80
2018-10-17T08:24:47.437Z,10.35
2018-10-17T08:27:15.101Z,9.13
2018-10-17T08:29:42.699Z,8.40
2018-10-17T08:32:10.413Z,7.43
2018-10-17T08:34:38.102Z,8.87
2018-10-17T08:37:06.015Z,10.90
2018-10-17T08:39:33.302Z,8.77
2018-10-17T08:42:00.986Z,9.13
2018-10-17T08:44:28.666Z,8.33
2018-10-17T08:46:56.311Z,10.13
2018-10-17T08:49:23.979Z,8.70
2018-10-17T08:51:51.624Z,7.10
2018-10-17T08:54:19.334Z,9.90
2018-10-17T08:56:46.946Z,8.43
2018-10-17T08:59:14.566Z,6.63
2018-10-17T09:01:42.679Z,6.87
2018-10-17T09:04:10.209Z,6.23
2018-10-17T09:06:37.729Z,6.53
2018-10-17T09:09:08.689Z,7.63
2018-10-17T09:11:36.221Z,8.60
2018-10-17T09:14:04.211Z,9.40
2018-10-17T09:16:31.904Z,7.57
2018-10-17T09:18:59.379Z,7.47
2018-10-17T09:21:27.447Z,10.63
2018-10-17T09:23:54.575Z,8.67
2018-10-17T09:26:22.201Z,7.77
2018-10-17T09:28:49.819Z,5.93
2018-10-17T09:31:17.454Z,6.30
2018-10-17T09:33:44.965Z,7.03
2018-10-17T09:36:12.674Z,7.70
2018-10-17T09:38:40.198Z,9.23
2018-10-17T09:41:07.833Z,7.13
2018-10-17T09:43:35.466Z,6.33
2018-10-17T09:46:03.055Z,8.63
2018-10-17T09:48:30.708Z,7.97
2018-10-17T09:50:58.370Z,9.00
2018-10-17T09:53:26.026Z,9.60
2018-10-17T09:55:53.541Z,8.83
2018-10-17T09:58:21.968Z,7.67
2018-10-17T10:00:55.307Z,8.43
2018-10-17T10:03:22.951Z,6.93
2018-10-17T10:05:50.473Z,6.80
2018-10-17T10:08:18.103Z,8.03
2018-10-17T10:10:45.704Z,6.70
2018-10-17T10:13:13.287Z,10.37
2018-10-17T10:15:40.845Z,6.97
2018-10-17T10:18:08.370Z,7.87
2018-10-17T10:20:36.038Z,8.13
2018-10-17T10:23:03.744Z,6.43
2018-10-17T10:25:31.233Z,8.97
2018-10-17T10:27:58.795Z,9.77
2018-10-17T10:30:26.451Z,8.37
2018-10-17T10:32:54.059Z,7.23
2018-10-17T10:35:21.716Z,7.47
2018-10-17T10:37:49.217Z,7.70
2018-10-17T10:40:16.861Z,7.43
2018-10-17T10:42:44.366Z,8.70
2018-10-17T10:45:12.030Z,9.20
2018-10-17T10:47:39.550Z,6.60
2018-10-17T10:50:07.481Z,9.03
2018-10-17T10:52:35.027Z,7.93
2018-10-17T10:55:02.715Z,7.87
2018-10-17T10:57:30.346Z,10.27
2018-10-17T10:59:57.928Z,5.80
2018-10-17T11:02:25.562Z,6.07
2018-10-17T11:04:53.078Z,5.47
2018-10-17T11:07:20.722Z,5.73
2018-10-17T11:09:48.384Z,7.10
2018-10-17T11:12:15.918Z,6.20
2018-10-17T11:14:43.582Z,7.33
2018-10-17T11:17:11.180Z,5.90
2018-10-17T11:19:38.690Z,5.03
2018-10-17T11:22:06.590Z,6.77
2018-10-17T11:24:34.094Z,5.13
2018-10-17T11:27:01.794Z,7.83
2018-10-17T11:29:29.471Z,5.03
2018-10-17T11:31:57.111Z,5.83
2018-10-17T11:34:24.588Z,6.47
2018-10-17T11:36:52.151Z,6.30
2018-10-17T11:39:19.783Z,5.80
2018-10-17T11:41:47.329Z,5.47
2018-10-17T11:44:14.954Z,5.97
2018-10-17T11:46:42.566Z,9.37
2018-10-17T11:49:10.090Z,6.27
2018-10-17T11:51:37.614Z,5.30
2018-10-17T11:54:05.255Z,6.40
2018-10-17T11:56:32.769Z,6.70
2018-10-17T11:59:00.340Z,4.93
2018-10-17T12:01:28.045Z,5.40
2018-10-17T12:03:55.737Z,5.40
2018-10-17T12:06:23.251Z,4.70
2018-10-17T12:08:50.926Z,6.00
2018-10-17T12:11:18.548Z,5.37
2018-10-17T12:13:46.111Z,6.50
2018-10-17T12:16:13.626Z,5.93
2018-10-17T12:18:41.158Z,10.57
2018-10-17T12:21:08.790Z,5.07
2018-10-17T12:23:36.375Z,5.10
2018-10-17T12:26:03.946Z,7.30
2018-10-17T12:28:31.661Z,10.80
2018-10-17T12:30:59.229Z,9.30
2018-10-17T12:33:26.947Z,9.57
2018-10-17T12:35:54.459Z,5.27
2018-10-17T12:38:21.990Z,6.03
2018-10-17T12:40:49.844Z,6.07
2018-10-17T12:43:17.213Z,4.53
2018-10-17T12:45:44.814Z,4.03
2018-10-17T12:48:12.265Z,4.87
2018-10-17T12:50:39.802Z,5.67
2018-10-17T12:53:07.670Z,3.83
2018-10-17T12:55:35.019Z,4.00
2018-10-17T12:58:02.727Z,3.83
2018-10-17T13:00:30.304Z,3.97
2018-10-17T13:02:57.923Z,5.50
2018-10-17T13:05:25.478Z,4.33
2018-10-17T13:07:53.098Z,3.20
2018-10-17T13:10:20.665Z,4.10
2018-10-17T13:12:48.247Z,4.77
2018-10-17T13:15:15.809Z,4.10
2018-10-17T13:17:44.759Z,4.60
2018-10-17T13:20:12.339Z,5.87
2018-10-17T13:22:40.030Z,5.90
2018-10-17T13:25:07.733Z,4.87
2018-10-17T13:27:35.323Z,4.17
2018-10-17T13:30:03.704Z,3.43
2018-10-17T13:32:31.346Z,8.67
2018-10-17T13:34:58.983Z,3.77
2018-10-17T13:37:26.638Z,3.33
2018-10-17T13:39:54.313Z,3.70
2018-10-17T13:42:21.920Z,3.83
2018-10-17T13:44:49.477Z,3.47
2018-10-17T13:47:17.198Z,3.97
2018-10-17T13:49:45.114Z,2.97
2018-10-17T13:52:12.710Z,3.37
2018-10-17T13:54:40.350Z,3.50
2018-10-17T13:57:07.829Z,3.77
2018-10-17T13:59:35.510Z,3.13
2018-10-17T14:02:03.026Z,2.87
2018-10-17T14:04:30.676Z,3.07
2018-10-17T14:06:58.449Z,4.07
2018-10-17T14:09:25.996Z,5.50
2018-10-17T14:11:53.648Z,4.80
2018-10-17T14:14:21.299Z,4.43
2018-10-17T14:16:48.967Z,3.43
2018-10-17T14:19:16.622Z,4.77
2018-10-17T14:21:44.312Z,3.47
2018-10-17T14:24:11.994Z,3.10
2018-10-17T14:26:39.549Z,3.43
2018-10-17T14:29:07.168Z,3.47
2018-10-17T14:31:34.796Z,3.10
2018-10-17T14:34:02.456Z,3.60
2018-10-17T14:36:30.097Z,3.20
2018-10-17T14:38:57.739Z,3.73
2018-10-17T14:41:25.332Z,4.00
2018-10-17T14:43:53.079Z,3.50
2018-10-17T14:46:20.530Z,3.10
2018-10-17T14:48:48.155Z,3.20
2018-10-17T14:51:15.851Z,2.77
2018-10-17T14:53:43.346Z,3.30
2018-10-17T14:56:10.901Z,4.03
2018-10-17T14:58:38.434Z,3.27
2018-10-17T15:01:06.144Z,4.13
2018-10-17T15:03:33.766Z,4.63
2018-10-17T15:06:01.418Z,2.70
2018-10-17T15:08:28.958Z,3.57
2018-10-17T15:10:56.750Z,2.93
2018-10-17T15:13:24.192Z,2.57
2018-10-17T15:15:51.823Z,3.03
2018-10-17T15:18:19.479Z,5.30
2018-10-17T15:20:47.026Z,3.37
2018-10-17T15:23:14.583Z,4.93
2018-10-17T15:25:42.101Z,3.60
2018-10-17T15:28:09.727Z,5.97
2018-10-17T15:30:37.286Z,4.83
2018-10-17T15:33:04.919Z,3.70
2018-10-17T15:35:32.615Z,3.70
2018-10-17T15:38:00.175Z,3.80
2018-10-17T15:40:27.701Z,3.73
2018-10-17T15:42:55.377Z,3.40
2018-10-17T15:45:22.907Z,4.43
2018-10-17T15:47:50.457Z,3.43
2018-10-17T15:50:18.080Z,3.50
2018-10-17T15:52:45.617Z,5.17
2018-10-17T15:55:13.279Z,3.70
2018-10-17T15:57:40.950Z,6.57
2018-10-17T16:00:09.515Z,4.10
2018-10-17T16:02:37.192Z,3.70
2018-10-17T16:05:05.491Z,4.00
2018-10-17T16:07:33.049Z,4.30
2018-10-17T16:10:00.587Z,4.00
2018-10-17T16:12:28.148Z,3.50
2018-10-17T16:14:55.698Z,4.17
2018-10-17T16:17:23.254Z,4.97
2018-10-17T16:19:50.790Z,4.37
2018-10-17T16:22:18.378Z,4.77
2018-10-17T16:24:46.035Z,5.73
2018-10-17T16:27:13.601Z,4.70
2018-10-17T16:29:41.154Z,4.37
2018-10-17T16:32:09.812Z,4.50
2018-10-17T16:34:37.422Z,4.57
2018-10-17T16:37:05.250Z,4.57
2018-10-17T16:39:32.806Z,5.70
2018-10-17T16:42:00.354Z,4.20
2018-10-17T16:44:27.885Z,4.57
2018-10-17T16:46:55.519Z,15.37
2018-10-17T16:49:23.382Z,6.67
2018-10-17T16:51:51.007Z,5.37
2018-10-17T16:54:18.643Z,5.87
2018-10-17T16:56:46.271Z,5.37
2018-10-17T16:59:13.820Z,7.50
2018-10-17T17:01:41.397Z,6.50
2018-10-17T17:04:08.976Z,5.23
2018-10-17T17:06:36.522Z,5.63
2018-10-17T17:09:05.959Z,4.60
2018-10-17T17:11:33.423Z,4.03
2018-10-17T17:14:07.657Z,4.33
2018-10-17T17:16:35.314Z,3.90
2018-10-17T17:19:02.843Z,4.27
2018-10-17T17:21:30.378Z,6.60
2018-10-17T17:23:57.910Z,4.43
2018-10-17T17:26:25.581Z,5.20
2018-10-17T17:28:53.215Z,5.37
2018-10-17T17:31:20.834Z,4.03
2018-10-17T17:33:48.386Z,5.10
2018-10-17T17:36:15.948Z,5.47
2018-10-17T17:38:43.570Z,5.57
2018-10-17T17:41:11.162Z,4.13
2018-10-17T17:43:38.723Z,6.00
2018-10-17T17:46:06.579Z,5.80
2018-10-17T17:48:34.116Z,5.57
2018-10-17T17:51:01.666Z,3.63
2018-10-17T17:53:29.317Z,4.50
2018-10-17T17:55:56.881Z,5.13
2018-10-17T17:58:24.780Z,4.00
2018-10-17T18:00:52.354Z,4.70
2018-10-17T18:03:19.970Z,5.10
2018-10-17T18:05:47.525Z,4.30
2018-10-17T18:08:15.039Z,5.00
2018-10-17T18:10:42.722Z,4.17
2018-10-17T18:13:10.363Z,5.10
2018-10-17T18:15:37.893Z,5.53
2018-10-17T18:18:05.570Z,7.27
2018-10-17T18:20:33.218Z,14.13
2018-10-17T18:23:00.754Z,22.77
2018-10-17T18:25:28.394Z,28.87
2018-10-17T18:27:57.008Z,15.87
2018-10-17T18:30:24.658Z,16.23
2018-10-17T18:32:52.297Z,7.80
2018-10-17T18:35:19.841Z,14.03
2018-10-17T18:37:47.428Z,22.93
2018-10-17T18:40:15.090Z,34.63
2018-10-17T18:42:42.710Z,22.43
2018-10-17T18:45:10.242Z,15.77
2018-10-17T18:47:37.810Z,10.33
2018-10-17T18:50:05.967Z,8.17
2018-10-17T18:52:33.590Z,6.90
2018-10-17T18:55:01.134Z,9.23
2018-10-17T18:57:28.768Z,5.13
2018-10-17T18:59:56.298Z,5.03
2018-10-17T19:02:23.941Z,4.47
2018-10-17T19:04:51.532Z,5.43
2018-10-17T19:07:19.066Z,7.00
2018-10-17T19:09:46.782Z,5.50
2018-10-17T19:12:14.310Z,4.87
2018-10-17T19:14:41.841Z,5.27
2018-10-17T19:17:09.350Z,5.60
2018-10-17T19:19:36.962Z,4.87
2018-10-17T19:22:04.891Z,5.57
2018-10-17T19:24:32.492Z,5.20
2018-10-17T19:27:00.051Z,5.40
2018-10-17T19:29:27.568Z,4.93
2018-10-17T19:31:55.097Z,5.73
2018-10-17T19:34:22.721Z,5.27
2018-10-17T19:36:50.255Z,5.13
2018-10-17T19:39:17.891Z,5.50
2018-10-17T19:41:45.331Z,5.60
2018-10-17T19:44:12.949Z,4.43
2018-10-17T19:46:40.478Z,5.40
2018-10-17T19:49:08.134Z,5.03
2018-10-17T19:51:35.658Z,5.37
2018-10-17T19:54:03.339Z,5.07
2018-10-17T19:56:30.859Z,4.73
2018-10-17T19:58:58.851Z,5.33
2018-10-17T20:01:26.499Z,6.67
2018-10-17T20:03:54.074Z,6.90
2018-10-17T20:06:21.626Z,5.00
2018-10-17T20:08:49.147Z,5.17
2018-10-17T20:11:16.851Z,5.00
2018-10-17T20:13:44.430Z,5.50
2018-10-17T20:16:12.070Z,4.83
2018-10-17T20:18:39.586Z,5.93
2018-10-17T20:21:07.111Z,5.33
2018-10-17T20:23:34.765Z,5.37
2018-10-17T20:26:02.496Z,5.57
2018-10-17T20:28:30.170Z,4.97
2018-10-17T20:30:57.774Z,6.40
2018-10-17T20:33:25.294Z,5.13
2018-10-17T20:35:52.838Z,5.27
2018-10-17T20:38:20.362Z,5.40
2018-10-17T20:40:47.929Z,5.13
2018-10-17T20:43:15.452Z,5.03
2018-10-17T20:45:42.991Z,7.77
2018-10-17T20:48:10.538Z,5.10
2018-10-17T20:50:38.062Z,6.40
2018-10-17T20:53:05.671Z,5.63
2018-10-17T20:55:33.210Z,5.67
2018-10-17T20:58:00.786Z,5.73
2018-10-17T21:00:28.291Z,5.27
2018-10-17T21:02:55.903Z,6.67
2018-10-17T21:05:23.547Z,5.43
2018-10-17T21:07:51.099Z,6.23
2018-10-17T21:10:18.788Z,5.23
2018-10-17T21:12:46.310Z,5.03
2018-10-17T21:15:13.809Z,5.43
2018-10-17T21:17:41.331Z,5.23
2018-10-17T21:20:08.930Z,7.33
2018-10-17T21:22:36.428Z,5.17
2018-10-17T21:25:04.085Z,5.97
2018-10-17T21:27:31.694Z,5.70
2018-10-17T21:29:59.212Z,6.20
2018-10-17T21:32:26.781Z,5.73
2018-10-17T21:34:54.414Z,5.10
2018-10-17T21:37:21.939Z,5.93
2018-10-17T21:39:49.558Z,6.20
2018-10-17T21:42:17.082Z,5.53
2018-10-17T21:44:44.691Z,6.13
2018-10-17T21:47:12.403Z,5.07
2018-10-17T21:49:39.905Z,5.67
2018-10-17T21:52:07.426Z,5.57
2018-10-17T21:54:35.043Z,7.00
2018-10-17T21:57:02.678Z,5.90
2018-10-17T21:59:30.211Z,6.77
2018-10-17T22:01:57.780Z,5.70
2018-10-17T22:04:25.386Z,5.97
2018-10-17T22:06:53.093Z,4.73
2018-10-17T22:09:20.645Z,6.13
2018-10-17T22:11:48.301Z,5.30
2018-10-17T22:14:16.008Z,5.90
2018-10-17T22:16:49.245Z,5.47
2018-10-17T22:19:16.980Z,6.00
2018-10-17T22:21:44.863Z,5.80
2018-10-17T22:24:12.397Z,5.77
2018-10-17T22:26:39.917Z,7.73
2018-10-17T22:29:07.478Z,6.23
2018-10-17T22:31:35.115Z,5.97
2018-10-17T22:34:09.174Z,6.00
2018-10-17T22:36:36.810Z,6.37
2018-10-17T22:39:08.410Z,7.47
2018-10-17T22:41:36.035Z,5.87
2018-10-17T22:44:03.704Z,6.27
2018-10-17T22:46:31.343Z,7.27
2018-10-17T22:48:58.871Z,5.20
2018-10-17T22:51:26.482Z,6.80
2018-10-17T22:53:53.994Z,6.27
2018-10-17T22:56:21.626Z,7.73
2018-10-17T22:58:49.218Z,6.23
2018-10-17T23:01:16.750Z,5.67
2018-10-17T23:03:44.285Z,8.07
2018-10-17T23:06:11.899Z,6.53
2018-10-17T23:08:39.514Z,6.50
2018-10-17T23:11:07.189Z,6.10
2018-10-17T23:13:34.789Z,6.30
2018-10-17T23:16:02.312Z,6.20
2018-10-17T23:18:29.918Z,6.47
2018-10-17T23:20:57.542Z,6.07
2018-10-17T23:23:25.178Z,5.23
2018-10-17T23:25:52.752Z,6.63
2018-10-17T23:28:20.319Z,5.83
2018-10-17T23:30:47.963Z,7.23
2018-10-17T23:33:15.594Z,6.37
2018-10-17T23:35:43.197Z,6.70
2018-10-17T23:38:10.794Z,6.83
2018-10-17T23:40:38.366Z,6.07
2018-10-17T23:43:06.118Z,6.60
2018-10-17T23:45:33.730Z,6.87
2018-10-17T23:48:01.338Z,6.40
2018-10-17T23:50:28.872Z,6.57
2018-10-17T23:52:56.401Z,6.87
2018-10-17T23:55:24.003Z,7.73
2018-10-17T23:57:51.544Z,6.73
